Airfield :







YOU CAN JOIN US ON...

 
LOGIN :

Register | Disclaimer

   EN    FR    IT 

 









Legend :    VFR   Marginal VFR   IFR   Intensive IFR   Very Intensive IFR
Visi :
Ceiling :
>= 8 km
>= 3000ft
5 to 8 km
1000 to 3000 ft
1500m to 5 km
500 to 1000 ft
800 to 1500m
200 to 500 ft
< 800m
< 200 ft
Symbols :   Thunderstorms  Fog  Heavy snow  Heavy precipitations  Wind > 20 kt







- Airport Elevation : 522 ft
- IATA code : YBG


CYBG - CFB Bagotville

CURRENT METAR :
  • 192236Z 10007KT 25SM FEW020 BKN050 OVC070 11/05 A2999 RMK CF1SC6AC2 SLP160

EXPIRED METARs :
  • 192200Z 10008KT 20SM -SHRA FEW020 BKN050 OVC070 11/05 A2999 RMK CF1SC6AC1 PCPN VRY LGT SLP161
  • 192100Z 09008KT 25SM FEW020 BKN050 OVC070 12/05 A3000 RMK SC2SC6AC1 CVCTV CLDS EMBD SLP163
  • 192000Z 11004KT 25SM FEW020 BKN050 OVC070 12/07 A3000 RMK SC1SC6AC1 CVCTV CLD EMBD SLP163

TAF TAF CYBG
Valid from the 19 at 18:00 until the 20 at 18:00 UTC


191730Z 1918/2018 09005KT P6SM FEW020 BKN060 OVC080
TEMPO 1918/2004 5SM -RA BR OVC020
FM200400 09012KT 2SM -RA BR OVC006 RMK NXT FCST BY 200000Z
CZUL FIR / North America



MET'MAP, your aeronautical weather chart ! - Copyright ORBIFLY December 2007 - Disclaimer

ORBIFLY MET'MAP TEAM :

Programming & Development : Alexandra Zaïnal
Concept & Development : Baudouin d'Aumeries
Co-Development & Prog : Marc-Olivier Méhu
Technical & hardware support : Manuel Goepfert

Contact : metmap@orbifly.com




SOURCES & CREDITS :

   NOAA